Time;durP1;ratioP1;P1;durP2;ratioP2;P2;SDS_P1;SDS_P2;PMS_P1;PMS_P2;Temp;Humidity;BMP_temperature;BMP_pressure;BME280_temperature;BME280_humidity;BME280_pressure;Samples;Min_cycle;Max_cycle;Signal;HPM_P1;HPM_P2
2022/11/06 00:01:11;;;;;;;;;;;14.10;61.90;;;;;;5023358;28;87441;-36
2022/11/06 00:03:37;;;;;;;;;;;14.10;62.00;;;;;;5022533;28;88019;-36
2022/11/06 00:08:50;;;;;;;;;;;14.10;62.00;;;;;;5022243;28;88176;-36
2022/11/06 00:11:17;;;;;;;;;;;14.10;61.90;;;;;;5022796;28;87138;-36
2022/11/06 00:13:43;;;;;;;;;;;14.10;62.10;;;;;;5022890;28;86980;-36
2022/11/06 00:16:09;;;;;;;;;;;14.00;61.90;;;;;;5022230;28;87222;-36
2022/11/06 00:18:35;;;;;;;;;;;14.00;62.00;;;;;;5022690;28;87121;-36
2022/11/06 00:21:07;;;;;;;;;;;14.00;62.00;;;;;;5022301;28;87426;-36
2022/11/06 00:23:33;;;;;;;;;;;14.00;62.10;;;;;;5022411;28;87981;-36
2022/11/06 00:25:59;;;;;;;;;;;14.00;62.00;;;;;;5023110;28;86358;-36
2022/11/06 00:28:24;;;;;;;;;;;13.90;62.00;;;;;;5025286;28;87049;-36
2022/11/06 00:30:49;;;;;;;;;;;14.00;62.00;;;;;;5022280;28;87144;-36
2022/11/06 00:33:15;;;;;;;;;;;13.90;62.00;;;;;;5021921;28;87921;-36
2022/11/06 00:35:40;;;;;;;;;;;14.00;62.00;;;;;;5021484;28;87860;-36
2022/11/06 00:38:06;;;;;;;;;;;14.00;62.10;;;;;;5022610;28;87077;-36
2022/11/06 00:40:32;;;;;;;;;;;13.90;62.10;;;;;;5022256;28;87977;-36
2022/11/06 00:42:57;;;;;;;;;;;13.90;62.00;;;;;;5021898;28;89469;-36
2022/11/06 00:45:23;;;;;;;;;;;13.90;62.10;;;;;;5021746;28;87132;-36
2022/11/06 00:47:49;;;;;;;;;;;13.90;62.00;;;;;;5022530;28;87504;-36
2022/11/06 00:50:15;;;;;;;;;;;13.90;62.00;;;;;;5025426;28;87174;-36
2022/11/06 00:52:40;;;;;;;;;;;13.90;62.10;;;;;;5022386;28;87173;-36
2022/11/06 00:55:06;;;;;;;;;;;13.90;62.10;;;;;;5022044;28;87926;-36
2022/11/06 00:57:31;;;;;;;;;;;13.80;62.20;;;;;;5021758;28;88092;-36
2022/11/06 00:59:57;;;;;;;;;;;13.80;62.10;;;;;;5022105;28;88308;-36
2022/11/06 01:02:22;;;;;;;;;;;13.80;62.10;;;;;;5021886;28;88174;-36
2022/11/06 01:04:48;;;;;;;;;;;13.80;62.20;;;;;;5022323;28;87110;-36
2022/11/06 01:07:13;;;;;;;;;;;13.80;62.20;;;;;;5022149;28;87362;-36
2022/11/06 01:09:39;;;;;;;;;;;13.80;62.10;;;;;;5021718;28;88125;-36
2022/11/06 01:12:04;;;;;;;;;;;13.80;62.20;;;;;;5025005;28;87484;-36
2022/11/06 01:14:30;;;;;;;;;;;13.80;62.20;;;;;;5022015;28;86491;-36
2022/11/06 01:16:55;;;;;;;;;;;13.70;62.20;;;;;;5022158;28;87131;-36
2022/11/06 01:19:21;;;;;;;;;;;13.70;62.20;;;;;;5022096;28;87374;-36
2022/11/06 01:21:47;;;;;;;;;;;13.70;62.20;;;;;;5020992;28;89212;-36
2022/11/06 01:24:14;;;;;;;;;;;13.70;62.20;;;;;;5022029;28;87123;-36
2022/11/06 01:26:40;;;;;;;;;;;13.70;62.30;;;;;;5021574;28;87439;-36
2022/11/06 01:29:07;;;;;;;;;;;13.70;62.20;;;;;;5021241;28;88175;-36
2022/11/06 01:31:33;;;;;;;;;;;13.70;62.30;;;;;;5026938;28;86937;-36
2022/11/06 01:33:59;;;;;;;;;;;13.70;62.30;;;;;;5024979;28;88095;-36
2022/11/06 01:36:25;;;;;;;;;;;13.70;62.20;;;;;;5024838;28;87162;-36
2022/11/06 01:38:52;;;;;;;;;;;13.70;62.30;;;;;;5025685;28;87458;-36
2022/11/06 01:41:19;;;;;;;;;;;13.60;62.20;;;;;;5024636;28;87896;-36
2022/11/06 01:43:45;;;;;;;;;;;13.60;62.20;;;;;;5025162;28;87156;-36
2022/11/06 01:46:10;;;;;;;;;;;13.70;62.30;;;;;;5024665;28;88176;-36
2022/11/06 01:48:38;;;;;;;;;;;13.60;62.20;;;;;;5024859;28;88091;-36
2022/11/06 01:51:04;;;;;;;;;;;13.60;62.20;;;;;;5025000;28;87092;-36
2022/11/06 01:53:29;;;;;;;;;;;13.60;62.20;;;;;;5027825;28;87560;-36
2022/11/06 01:55:57;;;;;;;;;;;13.60;62.20;;;;;;5024606;28;87205;-36
2022/11/06 01:58:24;;;;;;;;;;;13.60;62.20;;;;;;5024619;28;87222;-36
2022/11/06 02:00:50;;;;;;;;;;;13.60;62.20;;;;;;5024388;28;88289;-36
2022/11/06 02:03:15;;;;;;;;;;;13.60;62.20;;;;;;5025255;28;86453;-36
2022/11/06 02:05:41;;;;;;;;;;;13.60;62.10;;;;;;5024723;28;86929;-36
2022/11/06 02:08:09;;;;;;;;;;;13.60;62.20;;;;;;5024464;28;87152;-36
2022/11/06 02:10:35;;;;;;;;;;;13.50;62.20;;;;;;5024038;28;88570;-36
2022/11/06 02:13:00;;;;;;;;;;;13.50;62.20;;;;;;5024499;28;88275;-36
2022/11/06 02:15:34;;;;;;;;;;;13.50;62.30;;;;;;5026965;28;89251;-36
2022/11/06 02:18:12;;;;;;;;;;;13.50;62.30;;;;;;5024464;28;88391;-36
2022/11/06 02:20:37;;;;;;;;;;;13.50;62.20;;;;;;5024404;28;87935;-36
2022/11/06 02:23:18;;;;;;;;;;;13.50;62.20;;;;;;5024454;28;87121;-36
2022/11/06 02:26:04;;;;;;;;;;;13.50;62.20;;;;;;5024375;28;87451;-36
2022/11/06 02:28:43;;;;;;;;;;;13.50;62.20;;;;;;5024900;28;87746;-36
2022/11/06 02:31:13;;;;;;;;;;;13.50;62.20;;;;;;5024369;28;87241;-36
2022/11/06 02:33:48;;;;;;;;;;;13.50;62.20;;;;;;5024282;28;87396;-36
2022/11/06 02:36:16;;;;;;;;;;;13.50;62.20;;;;;;5022725;28;88191;-36
2022/11/06 02:38:47;;;;;;;;;;;13.40;62.20;;;;;;5027127;28;87087;-36
2022/11/06 02:41:18;;;;;;;;;;;13.50;62.30;;;;;;5023673;28;87961;-36
2022/11/06 02:43:46;;;;;;;;;;;13.40;62.30;;;;;;5023515;28;87124;-36
2022/11/06 02:46:14;;;;;;;;;;;13.40;62.20;;;;;;5023938;28;87391;-37
2022/11/06 02:48:42;;;;;;;;;;;13.40;62.20;;;;;;5023553;28;89489;-36
2022/11/06 02:51:09;;;;;;;;;;;13.40;62.30;;;;;;5023877;28;86965;-36
2022/11/06 02:53:36;;;;;;;;;;;13.40;62.10;;;;;;5024438;28;87402;-36
2022/11/06 02:56:05;;;;;;;;;;;13.40;62.10;;;;;;5023799;28;88103;-37
2022/11/06 02:58:43;;;;;;;;;;;13.40;62.20;;;;;;5023845;28;87089;-36
2022/11/06 03:01:25;;;;;;;;;;;13.40;62.20;;;;;;5025484;28;88071;-36
2022/11/06 03:03:53;;;;;;;;;;;13.30;62.10;;;;;;5023788;28;87130;-36
2022/11/06 03:06:28;;;;;;;;;;;13.30;62.20;;;;;;5023796;28;88701;-37
2022/11/06 03:08:55;;;;;;;;;;;13.30;62.10;;;;;;5023675;28;87939;-36
2022/11/06 03:11:22;;;;;;;;;;;13.30;62.10;;;;;;5023583;28;87011;-36
2022/11/06 03:14:11;;;;;;;;;;;13.30;62.20;;;;;;5023488;28;88884;-36
2022/11/06 03:16:47;;;;;;;;;;;13.30;62.20;;;;;;5017136;28;87943;-36
2022/11/06 03:19:31;;;;;;;;;;;13.30;62.10;;;;;;5024228;28;86302;-36
2022/11/06 03:22:00;;;;;;;;;;;13.30;62.20;;;;;;5023739;28;86888;-36
2022/11/06 03:24:25;;;;;;;;;;;13.30;62.30;;;;;;5026214;28;87949;-36
2022/11/06 03:26:51;;;;;;;;;;;13.30;62.10;;;;;;5022788;28;89023;-36
2022/11/06 03:29:17;;;;;;;;;;;13.30;62.20;;;;;;5023185;28;87056;-36
2022/11/06 03:31:52;;;;;;;;;;;13.30;62.20;;;;;;5023591;28;87000;-36
2022/11/06 03:34:29;;;;;;;;;;;13.30;62.00;;;;;;5023430;28;86982;-36
2022/11/06 03:37:01;;;;;;;;;;;13.20;62.10;;;;;;5022749;28;88124;-36
2022/11/06 03:39:36;;;;;;;;;;;13.20;62.10;;;;;;5023022;28;87107;-36
2022/11/06 03:42:02;;;;;;;;;;;13.20;62.10;;;;;;5023491;28;87345;-36
2022/11/06 03:44:29;;;;;;;;;;;13.20;62.00;;;;;;5024522;28;90397;-36
2022/11/06 03:47:06;;;;;;;;;;;13.30;62.00;;;;;;5021915;28;88469;-36
2022/11/06 03:49:44;;;;;;;;;;;13.20;62.10;;;;;;5021354;28;91024;-36
2022/11/06 03:52:13;;;;;;;;;;;13.20;62.10;;;;;;5022554;28;87774;-36
2022/11/06 03:54:43;;;;;;;;;;;13.20;62.10;;;;;;5021879;28;88370;-36
2022/11/06 03:57:10;;;;;;;;;;;13.20;62.00;;;;;;5022573;28;87950;-36
2022/11/06 03:59:38;;;;;;;;;;;13.20;62.00;;;;;;5022731;28;87201;-36
2022/11/06 04:02:04;;;;;;;;;;;13.30;62.00;;;;;;5023225;28;89185;-36
2022/11/06 04:04:32;;;;;;;;;;;13.20;62.00;;;;;;5022781;28;88012;-36
2022/11/06 04:07:03;;;;;;;;;;;13.20;62.00;;;;;;5025994;28;87010;-36
2022/11/06 04:15:03;;;;;;;;;;;13.10;62.10;;;;;;5023094;28;87000;-36
2022/11/06 04:21:20;;;;;;;;;;;13.10;62.00;;;;;;5023074;28;86843;-36
2022/11/06 04:23:31;;;;;;;;;;;13.10;62.00;;;;;;5022233;28;88270;-36
2022/11/06 04:29:01;;;;;;;;;;;13.10;62.10;;;;;;5022600;28;87015;-36
2022/11/06 04:31:39;;;;;;;;;;;13.10;62.00;;;;;;5025451;28;87667;-36
2022/11/06 04:34:21;;;;;;;;;;;13.10;62.10;;;;;;5022621;28;87029;-36
2022/11/06 04:36:48;;;;;;;;;;;13.00;62.00;;;;;;5022275;28;86625;-36
2022/11/06 04:39:14;;;;;;;;;;;13.10;62.00;;;;;;5021586;28;89440;-36
2022/11/06 04:41:42;;;;;;;;;;;13.10;62.00;;;;;;5022654;28;87119;-36
2022/11/06 04:44:11;;;;;;;;;;;13.10;62.00;;;;;;5021856;28;87968;-36
2022/11/06 04:46:39;;;;;;;;;;;13.00;62.00;;;;;;5022218;28;88110;-36
2022/11/06 04:49:05;;;;;;;;;;;13.00;62.00;;;;;;5022289;28;86955;-36
2022/11/06 04:51:34;;;;;;;;;;;13.00;61.90;;;;;;5022175;28;88157;-36
2022/11/06 04:54:00;;;;;;;;;;;13.00;61.90;;;;;;5024483;28;89289;-36
2022/11/06 04:56:29;;;;;;;;;;;13.00;62.00;;;;;;5022345;28;87263;-36
2022/11/06 04:58:55;;;;;;;;;;;13.00;62.10;;;;;;5021847;28;88050;-36
2022/11/06 05:01:20;;;;;;;;;;;13.00;62.10;;;;;;5022829;28;86396;-36
2022/11/06 05:03:46;;;;;;;;;;;13.00;62.10;;;;;;5022298;28;86779;-36
2022/11/06 05:06:12;;;;;;;;;;;12.90;62.00;;;;;;5023526;28;88248;-36
2022/11/06 05:08:37;;;;;;;;;;;13.00;62.10;;;;;;5024696;28;87974;-36
2022/11/06 05:11:03;;;;;;;;;;;13.00;62.70;;;;;;5025666;28;88212;-36
2022/11/06 05:13:28;;;;;;;;;;;12.90;62.10;;;;;;5025595;28;88111;-36
2022/11/06 05:15:56;;;;;;;;;;;13.00;62.00;;;;;;5028641;28;86864;-36
2022/11/06 05:18:21;;;;;;;;;;;12.90;62.00;;;;;;5024890;28;89446;-36
2022/11/06 05:20:46;;;;;;;;;;;12.90;62.00;;;;;;5025489;28;87009;-36
2022/11/06 05:23:12;;;;;;;;;;;12.90;62.00;;;;;;5025409;28;87716;-36
2022/11/06 05:25:39;;;;;;;;;;;12.90;62.10;;;;;;5025712;28;87259;-36
2022/11/06 05:28:05;;;;;;;;;;;12.90;62.10;;;;;;5025536;28;88109;-36
2022/11/06 05:30:32;;;;;;;;;;;12.90;62.10;;;;;;5025067;28;88905;-36
2022/11/06 05:32:57;;;;;;;;;;;12.80;62.70;;;;;;5024333;28;88767;-36
2022/11/06 05:35:23;;;;;;;;;;;12.80;62.00;;;;;;5025040;28;87129;-36
2022/11/06 05:37:48;;;;;;;;;;;12.80;62.00;;;;;;5027564;28;87403;-36
2022/11/06 05:40:15;;;;;;;;;;;12.80;62.00;;;;;;5024907;28;87113;-36
2022/11/06 05:42:42;;;;;;;;;;;12.80;62.00;;;;;;5025223;28;87405;-36
2022/11/06 05:45:08;;;;;;;;;;;12.80;62.00;;;;;;5024554;28;88316;-37
2022/11/06 05:47:34;;;;;;;;;;;12.80;62.20;;;;;;5024822;28;87115;-36
2022/11/06 05:49:59;;;;;;;;;;;12.80;62.10;;;;;;5025592;28;87332;-36
2022/11/06 05:52:25;;;;;;;;;;;12.80;62.10;;;;;;5024580;28;87374;-36
2022/11/06 05:54:50;;;;;;;;;;;12.80;62.00;;;;;;5024951;28;87264;-36
2022/11/06 05:57:16;;;;;;;;;;;12.80;62.10;;;;;;5027259;28;89032;-36
2022/11/06 05:59:42;;;;;;;;;;;12.80;62.00;;;;;;5025033;28;87170;-36
2022/11/06 06:02:08;;;;;;;;;;;12.80;62.10;;;;;;5024557;28;88818;-36
2022/11/06 06:04:33;;;;;;;;;;;12.80;62.10;;;;;;5024611;28;88014;-36
2022/11/06 06:06:59;;;;;;;;;;;12.80;62.00;;;;;;5024747;28;87117;-36
2022/11/06 06:09:25;;;;;;;;;;;12.70;62.10;;;;;;5024581;28;87971;-36
2022/11/06 06:11:51;;;;;;;;;;;12.70;62.10;;;;;;5024445;28;87389;-36
2022/11/06 06:14:17;;;;;;;;;;;12.70;62.10;;;;;;5025008;28;86357;-36
2022/11/06 06:16:42;;;;;;;;;;;12.70;62.10;;;;;;5024493;28;87282;-36
2022/11/06 06:19:08;;;;;;;;;;;12.70;62.10;;;;;;5026725;28;88496;-36
2022/11/06 06:21:34;;;;;;;;;;;12.70;62.20;;;;;;5024115;28;87911;-36
2022/11/06 06:24:00;;;;;;;;;;;12.70;62.10;;;;;;5023979;28;89530;-36
2022/11/06 06:26:25;;;;;;;;;;;12.70;62.10;;;;;;5024615;28;87156;-36
2022/11/06 06:28:51;;;;;;;;;;;12.70;62.10;;;;;;5024384;28;86973;-36
2022/11/06 06:31:16;;;;;;;;;;;12.70;62.10;;;;;;5024283;28;88365;-36
2022/11/06 06:33:42;;;;;;;;;;;12.70;62.10;;;;;;5024475;28;87160;-36
2022/11/06 06:36:08;;;;;;;;;;;12.70;62.10;;;;;;5024041;28;88014;-36
2022/11/06 06:38:33;;;;;;;;;;;12.70;62.10;;;;;;5024088;28;87611;-36
2022/11/06 06:40:59;;;;;;;;;;;12.70;62.20;;;;;;5027288;28;87166;-36
2022/11/06 06:43:25;;;;;;;;;;;12.60;62.10;;;;;;5023924;28;87344;-36
2022/11/06 06:45:50;;;;;;;;;;;12.60;62.10;;;;;;5023486;28;87963;-36
2022/11/06 06:48:16;;;;;;;;;;;12.70;62.10;;;;;;5024292;28;88624;-36
2022/11/06 06:50:41;;;;;;;;;;;12.60;62.10;;;;;;5023872;28;87615;-36
2022/11/06 06:53:07;;;;;;;;;;;12.70;62.20;;;;;;5023922;28;87146;-36
2022/11/06 06:55:32;;;;;;;;;;;12.60;62.10;;;;;;5023936;28;86940;-36
2022/11/06 06:57:58;;;;;;;;;;;12.60;62.20;;;;;;5023693;28;87234;-36
2022/11/06 07:00:24;;;;;;;;;;;12.60;62.20;;;;;;5023945;28;87104;-36
2022/11/06 07:02:50;;;;;;;;;;;12.60;62.30;;;;;;5027174;28;87545;-36
2022/11/06 07:05:15;;;;;;;;;;;12.60;62.30;;;;;;5024255;28;87136;-36
2022/11/06 07:07:41;;;;;;;;;;;12.60;62.30;;;;;;5023995;28;87018;-36
2022/11/06 07:10:06;;;;;;;;;;;12.60;62.20;;;;;;5022614;28;88880;-36
2022/11/06 07:12:32;;;;;;;;;;;12.60;62.30;;;;;;5023816;28;87094;-36
2022/11/06 07:14:57;;;;;;;;;;;12.60;62.30;;;;;;5023691;28;87034;-36
2022/11/06 07:17:23;;;;;;;;;;;12.60;62.30;;;;;;5023355;28;88125;-36
2022/11/06 07:19:48;;;;;;;;;;;12.60;62.30;;;;;;5024041;28;87281;-36
2022/11/06 07:22:14;;;;;;;;;;;12.60;62.30;;;;;;5023672;28;87432;-36
2022/11/06 07:24:39;;;;;;;;;;;12.60;62.30;;;;;;5026020;28;88178;-36
2022/11/06 07:27:05;;;;;;;;;;;12.60;62.30;;;;;;5024088;28;87409;-36
2022/11/06 07:29:30;;;;;;;;;;;12.60;62.30;;;;;;5022650;28;89719;-36
2022/11/06 07:31:56;;;;;;;;;;;12.60;62.30;;;;;;5023531;28;87094;-36
2022/11/06 07:34:21;;;;;;;;;;;12.50;62.30;;;;;;5022940;28;88065;-36
2022/11/06 07:36:47;;;;;;;;;;;12.60;62.40;;;;;;5022925;28;87988;-36
2022/11/06 07:39:12;;;;;;;;;;;12.50;62.30;;;;;;5023191;28;87287;-36
2022/11/06 07:41:38;;;;;;;;;;;12.50;62.30;;;;;;5023502;28;87222;-36
2022/11/06 07:44:04;;;;;;;;;;;12.50;62.30;;;;;;5022992;28;87907;-36
2022/11/06 07:46:29;;;;;;;;;;;12.60;62.30;;;;;;5026030;28;86889;-36
2022/11/06 07:48:54;;;;;;;;;;;12.50;62.30;;;;;;5022983;28;87754;-36
2022/11/06 07:51:20;;;;;;;;;;;12.50;62.30;;;;;;5023897;28;86138;-36
2022/11/06 07:53:45;;;;;;;;;;;12.50;62.40;;;;;;5023029;28;87003;-36
2022/11/06 07:56:11;;;;;;;;;;;12.50;62.40;;;;;;5021179;28;89547;-36
2022/11/06 07:58:37;;;;;;;;;;;12.50;62.40;;;;;;5022393;28;88103;-36
2022/11/06 08:01:03;;;;;;;;;;;12.50;62.40;;;;;;5022858;28;89176;-36
2022/11/06 08:03:29;;;;;;;;;;;12.50;62.30;;;;;;5022890;28;87953;-36
2022/11/06 08:05:55;;;;;;;;;;;12.50;62.30;;;;;;5025791;28;87007;-36
2022/11/06 08:08:20;;;;;;;;;;;12.50;62.40;;;;;;5022285;28;88031;-36
2022/11/06 08:10:46;;;;;;;;;;;12.60;62.40;;;;;;5022921;28;86961;-36
2022/11/06 08:13:14;;;;;;;;;;;12.50;62.30;;;;;;5022689;28;88820;-36
2022/11/06 08:15:40;;;;;;;;;;;12.50;62.40;;;;;;5022895;28;87266;-36
2022/11/06 08:18:07;;;;;;;;;;;12.50;62.40;;;;;;5022700;28;87100;-36
2022/11/06 08:20:32;;;;;;;;;;;12.50;62.40;;;;;;5022555;28;88997;-36
2022/11/06 08:22:59;;;;;;;;;;;12.50;62.50;;;;;;5021528;28;88976;-36
2022/11/06 08:25:24;;;;;;;;;;;12.50;62.60;;;;;;5022741;28;87168;-36
2022/11/06 08:27:52;;;;;;;;;;;12.50;62.50;;;;;;5025392;28;87446;-36
2022/11/06 08:30:18;;;;;;;;;;;12.50;63.10;;;;;;5022451;28;87134;-36
2022/11/06 08:32:43;;;;;;;;;;;12.50;62.50;;;;;;5022711;28;87942;-36
2022/11/06 08:35:09;;;;;;;;;;;12.50;62.50;;;;;;5021660;28;88165;-36
2022/11/06 08:37:35;;;;;;;;;;;12.50;62.50;;;;;;5022239;28;87055;-36
2022/11/06 08:40:00;;;;;;;;;;;12.50;62.50;;;;;;5022086;28;89136;-36
2022/11/06 08:42:26;;;;;;;;;;;12.50;62.70;;;;;;5022121;28;87248;-36
2022/11/06 08:44:51;;;;;;;;;;;12.50;62.70;;;;;;5022834;28;87114;-36
2022/11/06 08:47:36;;;;;;;;;;;12.50;62.70;;;;;;5021749;28;87765;-36
2022/11/06 08:50:01;;;;;;;;;;;12.40;62.80;;;;;;5024869;28;87123;-36
2022/11/06 08:52:27;;;;;;;;;;;12.40;62.70;;;;;;5022076;28;89226;-36
2022/11/06 08:54:52;;;;;;;;;;;12.40;62.80;;;;;;5022096;28;88057;-36
2022/11/06 08:57:18;;;;;;;;;;;12.40;62.90;;;;;;5022079;28;88831;-36
2022/11/06 08:59:43;;;;;;;;;;;12.40;62.80;;;;;;5022397;28;87070;-36
2022/11/06 09:02:12;;;;;;;;;;;12.40;63.00;;;;;;5021995;28;88006;-36
2022/11/06 09:04:38;;;;;;;;;;;12.40;63.00;;;;;;5022790;28;86362;-36
2022/11/06 09:07:03;;;;;;;;;;;12.40;63.00;;;;;;5022084;28;87026;-36
2022/11/06 09:09:30;;;;;;;;;;;12.40;63.00;;;;;;5021925;28;87877;-36
2022/11/06 09:12:00;;;;;;;;;;;12.40;63.10;;;;;;5024534;28;87955;-36
2022/11/06 09:14:26;;;;;;;;;;;12.40;63.10;;;;;;5021796;28;88170;-36
2022/11/06 09:16:51;;;;;;;;;;;12.40;63.20;;;;;;5021952;28;87029;-36
2022/11/06 09:19:17;;;;;;;;;;;12.40;63.20;;;;;;5022023;28;87427;-36
2022/11/06 09:21:42;;;;;;;;;;;12.40;63.10;;;;;;5021589;28;88035;-36
2022/11/06 09:24:08;;;;;;;;;;;12.40;63.20;;;;;;5022066;28;87149;-36
2022/11/06 09:26:33;;;;;;;;;;;12.30;63.10;;;;;;5022008;28;87096;-36
2022/11/06 09:28:59;;;;;;;;;;;12.40;63.20;;;;;;5022217;28;87313;-36
2022/11/06 09:31:25;;;;;;;;;;;12.40;63.20;;;;;;5021915;28;87069;-36
2022/11/06 09:33:50;;;;;;;;;;;12.40;63.20;;;;;;5024637;28;87553;-36
2022/11/06 09:36:16;;;;;;;;;;;12.40;63.20;;;;;;5020100;28;88042;-36
2022/11/06 09:38:41;;;;;;;;;;;12.40;63.20;;;;;;5021735;28;87694;-36
2022/11/06 09:41:14;;;;;;;;;;;12.40;63.30;;;;;;5021544;28;87007;-36
2022/11/06 09:43:58;;;;;;;;;;;12.40;63.40;;;;;;5021834;28;86988;-36
2022/11/06 09:46:28;;;;;;;;;;;12.30;63.40;;;;;;5021700;28;87414;-36
2022/11/06 09:49:09;;;;;;;;;;;12.40;63.40;;;;;;5021087;28;88104;-36
2022/11/06 09:51:46;;;;;;;;;;;12.30;63.40;;;;;;5021764;28;87145;-36
2022/11/06 09:54:14;;;;;;;;;;;12.30;63.40;;;;;;5027714;28;87421;-36
2022/11/06 09:56:40;;;;;;;;;;;12.40;63.40;;;;;;5025036;28;87526;-36
2022/11/06 09:59:09;;;;;;;;;;;12.30;63.40;;;;;;5024966;28;87450;-36
2022/11/06 10:01:39;;;;;;;;;;;12.30;63.50;;;;;;5023700;28;88889;-36
2022/11/06 10:04:05;;;;;;;;;;;12.30;63.40;;;;;;5024756;28;87000;-36
2022/11/06 10:06:31;;;;;;;;;;;12.30;63.40;;;;;;5024736;28;88902;-36
2022/11/06 10:09:01;;;;;;;;;;;12.30;63.40;;;;;;5024628;28;87751;-36
2022/11/06 10:11:49;;;;;;;;;;;12.30;63.40;;;;;;5024722;28;87115;-36
2022/11/06 10:14:23;;;;;;;;;;;12.30;63.40;;;;;;5024427;28;89031;-36
2022/11/06 10:17:04;;;;;;;;;;;12.30;63.50;;;;;;5027150;28;88000;-36
2022/11/06 10:19:49;;;;;;;;;;;12.30;63.50;;;;;;5025062;28;87454;-36
2022/11/06 10:22:16;;;;;;;;;;;12.30;63.60;;;;;;5024149;28;88126;-36
2022/11/06 10:24:59;;;;;;;;;;;12.30;63.70;;;;;;5024498;28;87168;-36
2022/11/06 10:27:27;;;;;;;;;;;12.30;63.90;;;;;;5023919;28;87931;-36
2022/11/06 10:29:55;;;;;;;;;;;12.30;63.70;;;;;;5024162;28;88116;-36
2022/11/06 10:32:45;;;;;;;;;;;12.30;63.90;;;;;;5024363;28;87077;-36
2022/11/06 10:35:16;;;;;;;;;;;12.30;63.90;;;;;;5023805;28;88807;-36
2022/11/06 10:38:04;;;;;;;;;;;12.30;63.80;;;;;;5023971;28;87927;-36
2022/11/06 10:40:30;;;;;;;;;;;12.30;63.70;;;;;;5027066;28;87172;-36
2022/11/06 10:43:07;;;;;;;;;;;12.30;63.80;;;;;;5023783;28;88033;-36
2022/11/06 10:45:33;;;;;;;;;;;12.30;63.70;;;;;;5024692;28;86658;-36
2022/11/06 10:48:05;;;;;;;;;;;12.30;63.90;;;;;;5024247;28;87067;-36
2022/11/06 10:50:40;;;;;;;;;;;12.30;63.80;;;;;;5023647;28;89423;-36
2022/11/06 10:53:10;;;;;;;;;;;12.30;63.80;;;;;;5023649;28;87847;-37
2022/11/06 10:55:38;;;;;;;;;;;12.30;64.00;;;;;;5023559;28;88243;-36
2022/11/06 10:58:07;;;;;;;;;;;12.30;63.90;;;;;;5023557;28;87895;-36
2022/11/06 11:00:33;;;;;;;;;;;12.40;63.80;;;;;;5023964;28;87212;-36
2022/11/06 11:02:59;;;;;;;;;;;12.30;63.90;;;;;;5026041;28;87498;-36
2022/11/06 11:05:26;;;;;;;;;;;12.30;63.90;;;;;;5023786;28;87121;-36
2022/11/06 11:07:53;;;;;;;;;;;12.40;63.80;;;;;;5024032;28;87527;-36
2022/11/06 11:10:21;;;;;;;;;;;12.40;64.00;;;;;;5023708;28;88729;-36
2022/11/06 11:12:47;;;;;;;;;;;12.40;63.90;;;;;;5023769;28;86932;-36
2022/11/06 11:15:15;;;;;;;;;;;12.40;63.90;;;;;;5023547;28;87466;-36
2022/11/06 11:17:41;;;;;;;;;;;12.40;63.90;;;;;;5022473;28;90339;-36
2022/11/06 11:20:25;;;;;;;;;;;12.40;64.00;;;;;;5023762;28;87135;-36
2022/11/06 11:23:08;;;;;;;;;;;12.40;63.90;;;;;;5023430;28;87417;-36
2022/11/06 11:25:34;;;;;;;;;;;12.40;63.80;;;;;;5026002;28;89604;-36
2022/11/06 11:28:00;;;;;;;;;;;12.40;64.00;;;;;;5023694;28;87398;-36
2022/11/06 11:30:28;;;;;;;;;;;12.40;63.90;;;;;;5023034;28;87806;-36
2022/11/06 11:32:55;;;;;;;;;;;12.40;63.80;;;;;;5023346;28;87181;-36
2022/11/06 11:35:24;;;;;;;;;;;12.30;63.90;;;;;;5023085;28;87453;-36
2022/11/06 11:37:49;;;;;;;;;;;12.40;63.80;;;;;;5022784;28;88232;-36
2022/11/06 11:40:34;;;;;;;;;;;12.40;63.90;;;;;;5023281;28;86969;-36
2022/11/06 11:43:18;;;;;;;;;;;12.40;63.90;;;;;;5022434;28;89015;-36
2022/11/06 11:46:00;;;;;;;;;;;12.40;64.20;;;;;;5022674;28;88222;-36
2022/11/06 11:48:25;;;;;;;;;;;12.40;64.20;;;;;;5026160;28;87012;-36
2022/11/06 11:50:51;;;;;;;;;;;12.40;64.20;;;;;;5022887;28;88083;-36
2022/11/06 11:53:20;;;;;;;;;;;12.40;63.90;;;;;;5023110;28;87196;-36
2022/11/06 11:55:49;;;;;;;;;;;12.40;63.80;;;;;;5023079;28;88767;-36
2022/11/06 11:58:22;;;;;;;;;;;12.40;64.30;;;;;;5022782;28;88415;-36
2022/11/06 12:00:58;;;;;;;;;;;12.40;63.90;;;;;;5022009;28;86287;-36
2022/11/06 12:03:30;;;;;;;;;;;12.40;63.90;;;;;;5023151;28;87010;-36
2022/11/06 12:06:09;;;;;;;;;;;12.40;64.40;;;;;;5022885;28;88115;-36
2022/11/06 12:08:36;;;;;;;;;;;12.40;64.00;;;;;;5025494;28;88063;-36
2022/11/06 12:11:03;;;;;;;;;;;12.40;64.00;;;;;;5022533;28;88206;-36
2022/11/06 12:13:28;;;;;;;;;;;12.40;64.20;;;;;;5022655;28;87127;-36
2022/11/06 12:16:00;;;;;;;;;;;12.40;64.00;;;;;;5021702;28;88891;-36
2022/11/06 12:18:35;;;;;;;;;;;12.40;63.90;;;;;;5022453;28;88044;-36
2022/11/06 12:21:05;;;;;;;;;;;12.40;64.10;;;;;;5022647;28;87156;-36
2022/11/06 12:23:41;;;;;;;;;;;12.50;64.00;;;;;;5022315;28;88060;-36
2022/11/06 12:26:10;;;;;;;;;;;12.50;64.00;;;;;;5022572;28;87338;-36
2022/11/06 12:28:38;;;;;;;;;;;12.40;64.00;;;;;;5022580;28;87047;-36
2022/11/06 12:31:22;;;;;;;;;;;12.40;64.40;;;;;;5024784;28;87890;-36
2022/11/06 12:33:48;;;;;;;;;;;12.40;64.40;;;;;;5021936;28;88234;-36
2022/11/06 12:36:17;;;;;;;;;;;12.40;64.10;;;;;;5022110;28;88392;-36
2022/11/06 12:38:58;;;;;;;;;;;12.40;64.80;;;;;;5021988;28;87912;-36
2022/11/06 12:41:26;;;;;;;;;;;12.40;64.20;;;;;;5022210;28;86977;-36
2022/11/06 12:43:52;;;;;;;;;;;12.40;64.40;;;;;;5022570;28;87393;-36
2022/11/06 12:46:20;;;;;;;;;;;12.40;64.30;;;;;;5021507;28;89376;-36
2022/11/06 12:48:46;;;;;;;;;;;12.40;64.30;;;;;;5022185;28;87089;-36
2022/11/06 12:51:24;;;;;;;;;;;12.40;64.30;;;;;;5023235;28;87436;-36
2022/11/06 12:53:58;;;;;;;;;;;12.40;65.00;;;;;;5024976;28;87950;-36
2022/11/06 12:56:23;;;;;;;;;;;12.40;64.40;;;;;;5022268;28;87359;-36
2022/11/06 12:59:10;;;;;;;;;;;12.40;64.40;;;;;;5021256;28;88931;-36
2022/11/06 13:01:54;;;;;;;;;;;12.40;64.40;;;;;;5022010;28;86950;-36
2022/11/06 13:04:27;;;;;;;;;;;12.40;64.30;;;;;;5021935;28;87251;-36
2022/11/06 13:06:59;;;;;;;;;;;12.40;64.30;;;;;;5021845;28;87251;-36
2022/11/06 13:09:28;;;;;;;;;;;12.40;64.40;;;;;;5021670;28;87108;-36
2022/11/06 13:12:02;;;;;;;;;;;12.40;64.30;;;;;;5022344;28;87482;-36
2022/11/06 13:14:51;;;;;;;;;;;12.40;64.30;;;;;;5021655;28;87933;-36
2022/11/06 13:17:20;;;;;;;;;;;12.40;64.20;;;;;;5019567;28;86351;-36
2022/11/06 13:19:46;;;;;;;;;;;12.40;64.30;;;;;;5021666;28;88256;-36
2022/11/06 13:22:22;;;;;;;;;;;12.40;64.40;;;;;;5021757;28;87121;-36
2022/11/06 13:25:06;;;;;;;;;;;12.40;64.30;;;;;;5021192;28;87874;-36
2022/11/06 13:27:36;;;;;;;;;;;12.40;64.50;;;;;;5023880;28;88369;-36
2022/11/06 13:30:04;;;;;;;;;;;12.40;64.30;;;;;;5025148;28;87118;-36
2022/11/06 13:32:31;;;;;;;;;;;12.40;64.40;;;;;;5024866;28;89719;-36
2022/11/06 13:34:58;;;;;;;;;;;12.40;64.30;;;;;;5024104;28;87698;-36
2022/11/06 13:37:38;;;;;;;;;;;12.50;64.30;;;;;;5025350;28;87485;-36
2022/11/06 13:40:22;;;;;;;;;;;12.50;64.20;;;;;;5027782;28;87226;-36
2022/11/06 13:42:54;;;;;;;;;;;12.50;65.00;;;;;;5025646;28;86285;-36
2022/11/06 13:45:20;;;;;;;;;;;12.50;64.40;;;;;;5025380;28;86978;-36
2022/11/06 13:47:48;;;;;;;;;;;12.50;64.20;;;;;;5024540;28;87585;-36
2022/11/06 13:50:17;;;;;;;;;;;12.50;64.20;;;;;;5024620;28;87952;-36
2022/11/06 13:52:48;;;;;;;;;;;12.50;64.30;;;;;;5025332;28;88383;-36
2022/11/06 13:55:13;;;;;;;;;;;12.50;64.30;;;;;;5024882;28;88100;-36
2022/11/06 13:57:39;;;;;;;;;;;12.50;64.20;;;;;;5024661;28;87247;-36
2022/11/06 14:00:34;;;;;;;;;;;12.40;64.40;;;;;;5024894;28;87397;-36
2022/11/06 14:03:17;;;;;;;;;;;12.50;65.00;;;;;;4989354;28;87229;-36
2022/11/06 14:05:46;;;;;;;;;;;12.50;64.30;;;;;;5024932;28;88968;-36
2022/11/06 14:08:18;;;;;;;;;;;12.50;64.30;;;;;;5024771;28;87346;-36
2022/11/06 14:11:12;;;;;;;;;;;12.50;64.50;;;;;;5024908;28;86910;-36
2022/11/06 14:13:38;;;;;;;;;;;12.50;64.30;;;;;;5014965;28;87352;-36
2022/11/06 14:16:13;;;;;;;;;;;12.50;64.30;;;;;;5023640;28;88889;-36
2022/11/06 14:18:39;;;;;;;;;;;12.50;64.50;;;;;;5024398;28;87076;-36
2022/11/06 14:21:23;;;;;;;;;;;12.50;64.30;;;;;;5024668;28;86984;-36
2022/11/06 14:23:53;;;;;;;;;;;12.50;64.40;;;;;;5027314;28;87301;-36
2022/11/06 14:26:39;;;;;;;;;;;12.50;64.40;;;;;;5024246;28;88755;-36
2022/11/06 14:29:23;;;;;;;;;;;12.50;64.50;;;;;;5023950;28;87982;-36
2022/11/06 14:31:57;;;;;;;;;;;12.50;64.50;;;;;;5024762;28;87207;-36
2022/11/06 14:34:29;;;;;;;;;;;12.50;64.40;;;;;;5024854;28;88135;-36
2022/11/06 14:36:55;;;;;;;;;;;12.50;64.40;;;;;;5023625;28;87953;-36
2022/11/06 14:39:39;;;;;;;;;;;12.50;64.40;;;;;;5023340;28;87103;-36
2022/11/06 14:42:05;;;;;;;;;;;12.50;64.50;;;;;;5023775;28;87949;-36